createdAt,value
2023-04-12T00:03:26.967Z,59.42
2023-04-12T00:08:33.271Z,65.66
2023-04-12T00:13:36.076Z,64.99
2023-04-12T00:18:38.857Z,63.63
2023-04-12T00:23:41.582Z,62.25
2023-04-12T00:28:45.055Z,61.75
2023-04-12T00:33:47.911Z,60.65
2023-04-12T00:38:50.640Z,59.36
2023-04-12T00:43:53.372Z,58.15
2023-04-12T00:48:57.841Z,61.54
2023-04-12T00:54:01.659Z,69.22
2023-04-12T00:59:04.459Z,67.20
2023-04-12T01:04:07.824Z,64.60
2023-04-12T01:09:53.380Z,62.75
2023-04-12T01:15:14.793Z,61.89
2023-04-12T01:20:23.756Z,60.46
2023-04-12T01:25:29.248Z,58.16
2023-04-12T01:30:33.587Z,56.95
2023-04-12T01:35:37.812Z,63.61
2023-04-12T01:40:42.807Z,70.85
2023-04-12T01:45:46.903Z,69.19
2023-04-12T01:51:12.712Z,67.83
2023-04-12T01:56:18.148Z,66.45
2023-04-12T02:01:22.653Z,65.00
2023-04-12T02:06:26.801Z,63.58
2023-04-12T02:11:30.004Z,62.39
2023-04-12T02:16:34.411Z,62.95
2023-04-12T02:21:42.423Z,60.70
2023-04-12T02:26:46.040Z,57.93
2023-04-12T02:31:48.748Z,64.83
2023-04-12T02:36:51.490Z,67.14
2023-04-12T02:41:54.225Z,65.33
2023-04-12T02:46:57.046Z,63.53
2023-04-12T02:51:59.725Z,62.71
2023-04-12T02:57:02.488Z,63.22
2023-04-12T03:02:05.594Z,63.47
2023-04-12T03:07:08.959Z,62.79
2023-04-12T03:12:11.779Z,62.17
2023-04-12T03:17:14.673Z,60.65
2023-04-12T03:22:17.367Z,59.88
2023-04-12T03:27:20.174Z,56.74
2023-04-12T03:32:23.016Z,57.81
2023-04-12T03:37:26.410Z,58.38
2023-04-12T03:42:33.613Z,60.35
2023-04-12T03:47:37.325Z,67.51
2023-04-12T03:52:40.330Z,69.98
2023-04-12T03:57:43.137Z,66.86
2023-04-12T04:02:47.537Z,63.95
2023-04-12T04:07:51.284Z,62.36
2023-04-12T04:12:54.533Z,60.88
2023-04-12T04:17:57.318Z,60.06
2023-04-12T04:23:00.134Z,56.46
2023-04-12T04:28:02.927Z,56.07
2023-04-12T04:33:07.279Z,57.39
2023-04-12T04:38:10.472Z,60.32
2023-04-12T04:43:14.108Z,66.10
2023-04-12T04:48:18.894Z,68.65
2023-04-12T04:53:22.520Z,66.30
2023-04-12T04:58:25.803Z,63.31
2023-04-12T05:03:30.286Z,61.42
2023-04-12T05:08:33.518Z,59.77
2023-04-12T05:13:36.308Z,55.55
2023-04-12T05:18:39.054Z,59.00
2023-04-12T05:23:45.641Z,63.72
2023-04-12T05:28:48.418Z,63.30
2023-04-12T05:33:51.060Z,60.14
2023-04-12T05:38:53.948Z,56.99
2023-04-12T05:43:56.616Z,60.75
2023-04-12T05:48:59.536Z,65.45
2023-04-12T05:54:06.306Z,63.00
2023-04-12T05:59:11.168Z,60.36
2023-04-12T06:04:15.920Z,55.77
2023-04-12T06:09:19.150Z,56.61
2023-04-12T06:14:21.927Z,61.62
2023-04-12T06:19:24.764Z,63.68
2023-04-12T06:24:28.164Z,60.58
2023-04-12T06:29:30.974Z,55.88
2023-04-12T06:34:34.791Z,56.88
2023-04-12T06:39:37.778Z,62.86
2023-04-12T06:44:40.677Z,61.54
2023-04-12T06:49:43.474Z,57.01
2023-04-12T06:54:46.611Z,59.74
2023-04-12T06:59:49.451Z,62.65
2023-04-12T07:04:54.188Z,52.15
2023-04-12T07:09:57.354Z,59.83
2023-04-12T07:15:00.562Z,62.30
2023-04-12T07:20:03.696Z,57.70
2023-04-12T07:25:10.365Z,56.15
2023-04-12T07:30:13.684Z,57.77
2023-04-12T07:35:16.607Z,58.49
2023-04-12T07:40:19.527Z,58.17
2023-04-12T07:45:25.158Z,58.13
2023-04-12T07:50:28.102Z,59.09
2023-04-12T07:55:30.972Z,60.03
2023-04-12T08:00:34.583Z,59.14
2023-04-12T08:05:37.640Z,58.53
2023-04-12T08:10:40.943Z,57.18
2023-04-12T08:15:43.997Z,54.29
2023-04-12T08:20:47.244Z,50.32
2023-04-12T08:25:50.136Z,46.04
2023-04-12T08:30:52.894Z,43.56
2023-04-12T08:35:56.265Z,42.69
2023-04-12T08:40:59.406Z,40.48
2023-04-12T08:46:02.240Z,40.57
2023-04-12T08:51:06.678Z,39.07
2023-04-12T08:56:13.881Z,36.87
2023-04-12T09:01:18.721Z,34.07
2023-04-12T09:06:21.670Z,31.11
2023-04-12T09:11:27.351Z,30.38
2023-04-12T09:16:41.998Z,31.56
2023-04-12T09:21:56.343Z,29.48
2023-04-12T09:27:06.875Z,28.96
2023-04-12T09:32:09.637Z,28.67
2023-04-12T09:37:14.917Z,28.89
2023-04-12T09:42:29.960Z,29.08
2023-04-12T09:47:39.728Z,29.86
2023-04-12T09:52:43.843Z,29.21
2023-04-12T09:57:49.652Z,27.13
2023-04-12T10:02:57.028Z,27.02
2023-04-12T10:08:00.350Z,28.09
2023-04-12T10:13:03.564Z,26.47
2023-04-12T10:18:07.410Z,25.12
2023-04-12T10:23:10.989Z,26.56
2023-04-12T10:28:19.602Z,26.18
2023-04-12T10:33:27.824Z,25.29
2023-04-12T10:38:37.499Z,25.78
2023-04-12T10:43:44.809Z,26.47
2023-04-12T10:48:54.306Z,26.98
2023-04-12T10:54:09.736Z,26.48
2023-04-12T10:59:13.616Z,27.09
2023-04-12T11:04:21.984Z,27.25
2023-04-12T11:09:35.458Z,26.32
2023-04-12T11:14:39.303Z,26.35
2023-04-12T11:19:52.549Z,25.16
2023-04-12T11:24:57.440Z,26.31
2023-04-12T11:30:02.229Z,27.00
2023-04-12T11:35:06.289Z,28.02
2023-04-12T11:40:09.989Z,26.99
2023-04-12T11:45:18.840Z,29.42
2023-04-12T11:50:30.152Z,30.19
2023-04-12T11:55:32.964Z,30.63
2023-04-12T12:00:36.392Z,31.11
2023-04-12T12:05:41.307Z,31.33
2023-04-12T12:10:59.927Z,31.87
2023-04-12T12:16:08.606Z,32.17
2023-04-12T12:21:15.065Z,32.29
2023-04-12T12:26:25.398Z,32.56
2023-04-12T12:31:29.376Z,32.90
2023-04-12T12:36:37.562Z,30.84
2023-04-12T12:41:41.298Z,30.84
2023-04-12T12:46:55.322Z,31.33
2023-04-12T12:52:03.497Z,32.49
2023-04-12T12:57:06.194Z,32.52
2023-04-12T13:02:09.173Z,30.95
2023-04-12T13:07:12.185Z,30.99
2023-04-12T13:12:16.129Z,30.74
2023-04-12T13:17:19.012Z,31.47
2023-04-12T13:22:21.850Z,30.76
2023-04-12T13:27:24.634Z,32.18
2023-04-12T13:32:27.505Z,32.68
2023-04-12T13:37:30.719Z,34.14
2023-04-12T13:42:33.590Z,36.68
2023-04-12T13:47:36.628Z,38.32
2023-04-12T13:52:40.036Z,37.99
2023-04-12T13:57:43.380Z,38.80
2023-04-12T14:02:46.290Z,38.84
2023-04-12T14:07:50.116Z,38.95
2023-04-12T14:12:52.810Z,38.66
2023-04-12T14:17:56.067Z,36.66
2023-04-12T14:22:59.344Z,34.19
2023-04-12T14:28:02.055Z,32.07
2023-04-12T14:33:04.868Z,30.67
2023-04-12T14:38:09.163Z,31.89
2023-04-12T14:43:11.981Z,32.22
2023-04-12T14:48:14.695Z,31.49
2023-04-12T14:53:18.863Z,31.41
2023-04-12T14:58:21.824Z,32.69
2023-04-12T15:03:26.991Z,33.98
2023-04-12T15:08:29.934Z,35.71
2023-04-12T15:13:34.537Z,36.12
2023-04-12T15:18:39.480Z,37.14
2023-04-12T15:23:42.272Z,37.42
2023-04-12T15:28:45.022Z,37.75
2023-04-12T15:33:49.793Z,37.46
2023-04-12T15:38:54.514Z,37.55
2023-04-12T15:43:57.725Z,37.54
2023-04-12T15:49:01.657Z,37.85
2023-04-12T15:54:04.409Z,39.01
2023-04-12T15:59:09.196Z,40.22
2023-04-12T16:04:13.113Z,41.11
2023-04-12T16:09:16.802Z,44.17
2023-04-12T16:14:19.610Z,46.40
2023-04-12T16:19:23.008Z,48.71
2023-04-12T16:24:25.835Z,50.42
2023-04-12T16:29:29.139Z,51.46
2023-04-12T16:34:31.867Z,51.81
2023-04-12T16:39:35.359Z,52.10
2023-04-12T16:44:38.687Z,53.26
2023-04-12T16:49:41.837Z,54.16
2023-04-12T16:54:44.824Z,54.10
2023-04-12T16:59:47.697Z,54.77
2023-04-12T17:04:51.294Z,54.56
2023-04-12T17:09:55.052Z,54.41
2023-04-12T17:14:58.078Z,55.94
2023-04-12T17:20:01.258Z,55.72
2023-04-12T17:25:05.731Z,57.02
2023-04-12T17:30:12.401Z,56.48
2023-04-12T17:35:16.141Z,59.57
2023-04-12T17:40:19.335Z,56.42
2023-04-12T17:45:23.654Z,57.62
2023-04-12T17:50:26.765Z,57.11
2023-04-12T17:55:29.480Z,57.73
2023-04-12T18:00:32.256Z,56.93
2023-04-12T18:05:35.479Z,59.62
2023-04-12T18:10:38.201Z,58.82
2023-04-12T18:15:40.934Z,61.30
2023-04-12T18:20:43.769Z,68.31
2023-04-12T18:25:46.695Z,67.86
2023-04-12T18:30:49.702Z,61.05
2023-04-12T18:35:53.008Z,54.84
2023-04-12T18:40:55.956Z,54.87
2023-04-12T18:45:59.281Z,54.27
2023-04-12T18:51:02.031Z,54.29
2023-04-12T18:56:12.248Z,57.24
2023-04-12T19:01:15.601Z,57.99
2023-04-12T19:06:18.673Z,56.77
2023-04-12T19:11:21.733Z,57.50
2023-04-12T19:16:24.777Z,59.04
2023-04-12T19:21:31.980Z,59.72
2023-04-12T19:26:40.086Z,61.13
2023-04-12T19:31:47.646Z,64.91
2023-04-12T19:36:50.892Z,65.89
2023-04-12T19:41:53.675Z,63.07
2023-04-12T19:46:56.744Z,61.65
2023-04-12T19:51:59.935Z,56.96
2023-04-12T19:57:05.278Z,54.43
2023-04-12T20:02:08.229Z,56.23
2023-04-12T20:07:11.710Z,55.94
2023-04-12T20:12:16.958Z,56.60
2023-04-12T20:17:20.299Z,58.15
2023-04-12T20:22:23.415Z,59.82
2023-04-12T20:27:27.242Z,69.39
2023-04-12T20:32:30.280Z,70.10
2023-04-12T20:37:33.955Z,67.60
2023-04-12T20:42:37.272Z,64.48
2023-04-12T20:47:40.117Z,61.81
2023-04-12T20:52:43.065Z,59.85
2023-04-12T20:57:45.966Z,55.61
2023-04-12T21:02:48.974Z,55.92
2023-04-12T21:07:51.931Z,58.93
2023-04-12T21:12:54.960Z,58.81
2023-04-12T21:17:58.453Z,59.40
2023-04-12T21:23:04.184Z,67.94
2023-04-12T21:28:08.106Z,70.88
2023-04-12T21:33:14.512Z,67.63
2023-04-12T21:38:18.177Z,64.21
2023-04-12T21:43:20.925Z,61.81
2023-04-12T21:48:23.714Z,60.76
2023-04-12T21:53:27.329Z,57.37
2023-04-12T21:58:30.114Z,55.37
2023-04-12T22:03:32.963Z,57.55
2023-04-12T22:08:35.844Z,59.51
2023-04-12T22:13:46.231Z,65.72
2023-04-12T22:18:50.361Z,67.93
2023-04-12T22:23:55.342Z,64.46
2023-04-12T22:28:58.331Z,61.06
2023-04-12T22:34:01.636Z,57.03
2023-04-12T22:39:04.937Z,58.51
2023-04-12T22:44:07.996Z,59.33
2023-04-12T22:49:10.847Z,60.82
2023-04-12T22:54:13.584Z,64.69
2023-04-12T22:59:20.223Z,66.45
2023-04-12T23:04:23.045Z,64.81
2023-04-12T23:09:25.744Z,61.88
2023-04-12T23:14:29.874Z,60.13
2023-04-12T23:19:33.276Z,55.27
2023-04-12T23:24:37.132Z,56.52
2023-04-12T23:29:40.943Z,61.89
2023-04-12T23:34:44.363Z,65.01
2023-04-12T23:39:47.033Z,63.23
2023-04-12T23:44:49.771Z,60.68
2023-04-12T23:49:52.668Z,58.11
2023-04-12T23:54:55.380Z,64.06
2023-04-12T23:59:58.195Z,65.14
